DTMBGCLP

Guest
Details From DTMB - Monastir Habib Bourguiba Intl
To GCLP - Gran Canaria
Flight Number -
Tags generated
Created
Modified
Stats Distance 1,513 nm / 2,803 km
Max Altitude 34,000 ft / 10,363 m
Waypoints 20
Social Downloads 0
Likes 0
Share VATSIM

Download

Looking for another format? Having issues loading an existing format? Contact us
Advertisement - Login to hide

Notes

Basic altitude profile: - Ascent Rate: 2500ft/min - Ascent Speed: 250kts - Cruise Altitude: 35000ft - Cruise Speed: 420kts - Descent Rate: 1500ft/min - Descent Speed: 250kts Options: - Use NATs: no - Use PACOTS: no - Use low airways: yes - Use high airways: yes

Route

DTMB MON M980 ROGBA UM980 TBS UA31 BNA CHE UL102 ARIAM GULTI UG664 ADM UG850S RUSIK UN869 FTV GCLP

ID Type Via Altitude Latitude Longitude Leg Dist Tot Dist Heading (true) Name
O DTMB APT - 0 ft / 0 m 35.75784˚ 10.75403˚ - 0 nm - Monastir Habib Bourguiba Intl
MON VOR - 100 ft / 30 m 35.75492˚ 10.74806˚ 0 nm 0 nm 239° / 239° MONASTIR VOR-DME
BAMGI FIX M980 (AWY-LO) 5,700 ft / 1,737 m 35.71750˚ 10.42583˚ 15 nm 16 nm 262° / 262° -
NAVED FIX M980 (AWY-LO) 10,800 ft / 3,292 m 35.67639˚ 10.07889˚ 17 nm 33 nm 262° / 262° -
ROGBA FIX M980 (AWY-LO) 24,500 ft / 7,468 m 35.55000˚ 9.06722˚ 49 nm 83 nm 262° / 261° -
TBS VOR UM980 (AWY-HI) 34,000 ft / 10,363 m 35.45667˚ 8.06861˚ 49 nm 132 nm 264° / 263° TEBESSA VOR-DME
CSO VOR UA31 (AWY-HI) 34,000 ft / 10,363 m 36.29261˚ 6.60555˚ 87 nm 219 nm 306° / 305° CONSTANTINE VOR-DME
TAJEN FIX UA31 (AWY-HI) 34,000 ft / 10,363 m 36.37361˚ 5.85306˚ 36 nm 256 nm 278° / 277° -
BABOR FIX UA31 (AWY-HI) 34,000 ft / 10,363 m 36.46667˚ 5.00000˚ 41 nm 297 nm 278° / 277° -
BNA NDB UA31 (AWY-HI) 34,000 ft / 10,363 m 36.65111˚ 3.59139˚ 68 nm 366 nm 280° / 279° BENI AMRANE NDB
CHE NDB - 34,000 ft / 10,363 m 36.60139˚ 2.19333˚ 67 nm 434 nm 268° / 267° CHERCHELL NDB
ARIAM FIX UL102 (AWY-HI) 34,000 ft / 10,363 m 33.88944˚ -1.62694˚ 248 nm 682 nm 230° / 228° -
GULTI FIX - 34,000 ft / 10,363 m 34.13056˚ -2.49833˚ 45 nm 728 nm 289° / 288° -
ERA VOR UG664 (AWY-HI) 34,000 ft / 10,363 m 31.92417˚ -4.36056˚ 162 nm 890 nm 216° / 215° ERRACHIDIA VOR-DME
OZT VOR UG664 (AWY-HI) 34,000 ft / 10,363 m 30.94000˚ -6.90444˚ 143 nm 1033 nm 246° / 245° OUARZAZATE VOR-DME
RUTAL FIX UG664 (AWY-HI) 34,000 ft / 10,363 m 30.58083˚ -8.38167˚ 79 nm 1112 nm 255° / 254° -
ADM VOR UG664 (AWY-HI) 34,000 ft / 10,363 m 30.32194˚ -9.38333˚ 54 nm 1166 nm 254° / 253° AGADIR VOR-DME
RUSIK FIX UG850S (AWY-HI) 30,700 ft / 9,357 m 28.90611˚ -12.81639˚ 198 nm 1365 nm 245° / 244° -
FTV VOR UN869 (AWY-HI) 24,500 ft / 7,468 m 28.43078˚ -13.86450˚ 62 nm 1427 nm 243° / 242° FUERTEVENTURA VOR-DME
O GCLP APT - 0 ft / 0 m 27.93154˚ -15.38559˚ 85 nm 1513 nm 250° / 249° Gran Canaria

Altitude Profile

Advertisement - Login to hide

Weather


0- 5 10 15 20 25 30 35+ Temperature / ° C

Clouds and Precipitation
Forecast for 2018-05-27 12:00 UTC. Updated 2 hours ago

Ground ~20,000 ft ~40,000 ft Winds

DTMB

Details ICAO DTMB (MIR)
Name Monastir Habib Bourguiba Intl
Region Tunisia
Timezone Africa/Tunis (UTC+1.0)
Stats Elevation 9 ft / 3 m (AMSL)
Location 35.757843° 10.754025°
Runways 1
Magnetic Variation 2.475° E

METAR

DTMB 271230Z 13016KT CAVOK 32/13 Q1015

Decode

TAF

TAF DTMB 271116Z 2712/2812 15014KT 9999 FEW026= TAF DTTA 271116Z 2712/2812 16012KT 9999 FEW026

Decode

Departure Runways

ID Width Length Bearing (true) Bearing (mag) Surface Threshold Offset Overrun Length
07 148 ft / 45 m 9,627 ft / 2,934 m 73.54° 71.06° Asphalt 0 ft / 0 m 164 ft / 50 m
25 148 ft / 45 m 9,627 ft / 2,934 m 253.56° 251.08° Asphalt 0 ft / 0 m 164 ft / 50 m

GCLP

Details ICAO GCLP (LPA)
Name Gran Canaria
Region Canary Islands
Timezone Atlantic/Canary (UTC+1.0)
Stats Elevation 77 ft / 23 m (AMSL)
Location 27.931544° -15.385592°
Runways 2
Magnetic Variation 4.633° W

METAR

GCLP 271230Z 03023KT 9999 FEW050 22/12 Q1021 NOSIG

Decode

TAF

TAF GCLP 270800Z 2709/2809 36018KT 9999 FEW030 TX24/2714Z TN17/2805Z= TAF AMD KMIB 270820Z 2708/2807 VRB06KT 9999 FEW160 QNH2965INS TEMPO 2708/2711 09030G40KT 6000 -TSRAGS OVC030CB BECMG 2712/2713 36009KT 9999 SCT040 OVC100 QNH2978INS TX20/2708Z TN17/2712Z

Decode

Destination Runways

ID Width Length Bearing (true) Bearing (mag) Surface Threshold Offset Overrun Length
03L 148 ft / 45 m 10,203 ft / 3,110 m 21.33° 25.96° Asphalt 0 ft / 0 m 656 ft / 200 m
03R 148 ft / 45 m 10,200 ft / 3,109 m 21.32° 25.95° Asphalt 0 ft / 0 m 673 ft / 205 m
21L 148 ft / 45 m 10,200 ft / 3,109 m 201.33° 205.96° Asphalt 0 ft / 0 m 689 ft / 210 m
21R 148 ft / 45 m 10,203 ft / 3,110 m 201.33° 205.96° Asphalt 0 ft / 0 m 755 ft / 230 m

Approach Navaids

Runway Type Ident Frequency Range Bearing (true) Bearing (mag) Slope Elevation
03L Localiser ILP 109.90 MHz 18 nm / 33 km 21.33° 25.96° - 77 ft / 23 m (AMSL)
03L Glidescope ILP 109.90 MHz 10 nm / 19 km 21.33° 25.96° 3.00° 102 ft / 31 m (AMSL)
03L DME ILP 109.90 MHz 18 nm / 33 km - - - 102 ft / 31 m (AMSL)
21R Localiser RLP 110.70 MHz 18 nm / 33 km 201.32° 205.96° - 77 ft / 23 m (AMSL)
21R Glidescope RLP 110.70 MHz 10 nm / 19 km 201.33° 205.96° 3.00° 77 ft / 23 m (AMSL)
21R DME RLP 110.70 MHz 18 nm / 33 km - - - 57 ft / 17 m (AMSL)